NEODyS-2

Near Earth Objects - Dynamic Site
NEODyS ∴ Observatories ∴ Site 691 ∴ Obs & residuals
Contact »
691  ▹ 
OBSERVATIONS AND RESIDUALS

691-Steward Observatory, Kitt Peak-Spacewatch

Detections | Residuals | Detections & Residuals

[1-200] [201-400] [401-600] [601-800] [801-1000] [1001-1200] [1201-1400] [1401-1600] [1601-1800] [1801-2000] [2001-2200] [2201-2400] [2401-2600] [2601-2800] [2801-3000] [3001-3200] [3201-3400] [3401-3600] [3601-3800] [3801-4000] [4001-4200] [4201-4400] [4401-4600] [4601-4800] [4801-5000] [5001-5200] [5201-5400] [5401-5600] [5601-5800] [5801-6000] [6001-6200] [6201-6400] [6401-6600] [6601-6800] [6801-7000] [7001-7200] [7201-7400] [7401-7600] [7601-7800] [7801-8000] [8001-8200] [8201-8400] [8401-8600] [8601-8800] [8801-9000] [9001-9200] [9201-9400] [9401-9600] [9601-9800] [9801-10000] [10001-10200] [10201-10400] [10401-10600] [10601-10800] [10801-11000] [11001-11200] [11201-11400] [11401-11600] [11601-11800] [11801-12000] [12001-12200] [12201-12400] [12401-12600] [12601-12800] [12801-13000] [13001-13200] [13201-13400] [13401-13600] [13601-13800] [13801-14000] [14001-14200] [14201-14400] [14401-14600] [14601-14800] [14801-15000] [15001-15200] [15201-15400] [15401-15600] [15601-15800] [15801-16000] [16001-16200] [16201-16400] [16401-16600] [16601-16800] [16801-17000] [17001-17200] [17201-17400] [17401-17600] [17601-17800] [17801-18000] [18001-18200] [18201-18400] [18401-18600] [18601-18800] [18801-19000] [19001-19200] [19201-19400] [19401-19600] [19601-19800] [19801-20000] [20001-20200] [20201-20400] [20401-20600] [20601-20800] [20801-21000] [21001-21200] [21201-21400] [21401-21600] [21601-21800] [21801-22000] [22001-22200] [22201-22400] [22401-22600] [22601-22800] [22801-23000] [23001-23200] [23201-23400] [23401-23600] [23601-23800] [23801-24000] [24001-24200] [24201-24400] [24401-24600] [24601-24800] [24801-25000] [25001-25200] [25201-25400] [25401-25600] [25601-25800] [25801-26000] [26001-26200] [26201-26400] [26401-26600] [26601-26800] [26801-27000] [27001-27200] [27201-27400] [27401-27600] [27601-27800] [27801-28000] [28001-28200] [28201-28400] [28401-28600] [28601-28800] [28801-29000] [29001-29200] [29201-29400] [29401-29600] [29601-29800] [29801-30000] [30001-30200] [30201-30400] [30401-30600] [30601-30800] [30801-31000] [31001-31200] [31201-31400] [31401-31600] [31601-31800] [31801-32000] [32001-32200] [32201-32400] [32401-32600] [32601-32800] [32801-33000] [33001-33200] [33201-33400] [33401-33600] [33601-33800] [33801-34000] [34001-34200] [34201-34400] [34401-34600] [34601-34800] [34801-35000] [35001-35200] [35201-35400] [35401-35600] [35601-35800] [35801-36000] [36001-36200] [36201-36400] [36401-36600] [36601-36800] [36801-37000] [37001-37200] [37201-37400] [37401-37600] [37601-37800] [37801-38000] [38001-38200] [38201-38400] [38401-38600] [38601-38800] [38801-39000] [39001-39200] [39201-39400] [39401-39600] [39601-39800] [39801-40000] [40001-40200] [40201-40400] [40401-40600] [40601-40800] [40801-41000] [41001-41200] [41201-41400] [41401-41600] [41601-41800] [41801-42000] [42001-42200] [42201-42400] [42401-42600] [42601-42800] [42801-43000] [43001-43200] [43201-43400] [43401-43600] [43601-43800] [43801-44000] [44001-44200] [44201-44400] [44401-44600] [44601-44800] [44801-45000] [45001-45200] [45201-45400] [45401-45600] [45601-45800] [45801-46000] [46001-46200] [46201-46400] [46401-46600] [46601-46800] [46801-47000] [47001-47200] [47201-47400] [47401-47600] [47601-47800] [47801-48000] [48001-48200] [48201-48400] [48401-48600] [48601-48800] [48801-49000] [49001-49200] [49201-49400] [49401-49600] [49601-49800] [49801-50000] [50001-50200] [50201-50400] [50401-50600] [50601-50741]

Designation T Tech N Date Right Ascension Declination Apparent Magnitude Star Catalog Site code χ Used A Used M
yr-mo-day precision hr:min:sec precision rms F bias residual deg min sec precision rms F bias residual mag/col rms residual
2015VD65 O C H 2015-12-14.23596 1.000E-05 04:24:17.870 1.500E-01 0.500 F -0.178 -0.106 -31° 46' 57.30" 1.000E-01 0.500 F 0.127 -1.229 21.0 V 0.70 0.32 o 691 2.52 Yes Yes
2001VS78 O C 2015-12-14.24073 1.000E-05 03:54:10.500 1.500E-01 0.500 F -0.170 -0.053 -05° 29' 18.00" 1.000E-01 0.500 F 0.163 -0.039 18.3 V 0.70 0.09 o 691 0.13 Yes Yes
2001VS78 O C 2015-12-14.24432 1.000E-05 03:54:10.170 1.500E-01 0.500 F -0.170 -0.025 -05° 29' 15.50" 1.000E-01 0.500 F 0.163 -0.149 18.3 V 0.70 0.09 o 691 0.30 Yes Yes
2001VS78 O C 2015-12-14.24791 1.000E-05 03:54:09.840 1.500E-01 0.500 F -0.170 0.003 -05° 29' 12.70" 1.000E-01 0.500 F 0.163 0.040 18.3 V 0.70 0.09 o 691 0.08 Yes Yes
2015XJ351 O C H 2015-12-14.25147 1.000E-05 03:52:52.390 1.500E-01 0.500 F -0.191 0.616 +17° 22' 07.10" 1.000E-01 0.500 F 0.195 -0.798 21.6 V 0.70 0.56 o 691 2.04 Yes Yes
2015XJ351 O C H 2015-12-14.25443 1.000E-05 03:52:52.260 1.500E-01 0.500 F -0.191 -0.324 +17° 21' 57.90" 1.000E-01 0.500 F 0.195 -0.225 21.4 V 0.70 0.36 o 691 0.80 Yes Yes
2015XJ351 O C H 2015-12-14.25738 1.000E-05 03:52:52.200 1.500E-01 0.500 F -0.191 -0.266 +17° 21' 48.20" 1.000E-01 0.500 F 0.195 -0.185 21.5 V 0.70 0.45 o 691 0.66 Yes Yes
2015XT O C 2015-12-14.26047 1.000E-05 03:29:50.910 1.500E-01 0.500 F -0.345 0.113 +13° 12' 27.10" 1.000E-01 0.500 F 0.121 -0.295 20.2 V 0.70 -0.04 o 691 0.64 Yes Yes
2015XT O C 2015-12-14.26273 1.000E-05 03:29:50.260 1.500E-01 0.500 F -0.345 0.153 +13° 12' 31.70" 1.000E-01 0.500 F 0.121 0.145 20.2 V 0.70 -0.04 o 691 0.43 Yes Yes
2015XT O C 2015-12-14.26502 1.000E-05 03:29:49.580 1.500E-01 0.500 F -0.345 -0.119 +13° 12' 36.10" 1.000E-01 0.500 F 0.121 0.332 19.7 V 0.70 -0.54 o 691 0.71 Yes Yes
2015XC1 O C H 2015-12-14.27562 1.000E-05 03:36:09.400 1.500E-01 0.500 F -0.244 -0.499 +04° 55' 02.20" 1.000E-01 0.500 F 0.204 -0.383 21.5 V 0.70 0.17 o 691 1.27 Yes Yes
2015XC1 O C H 2015-12-14.27950 1.000E-05 03:36:09.140 1.500E-01 0.500 F -0.244 0.396 +04° 55' 00.30" 1.000E-01 0.500 F 0.204 -0.028 21.3 V 0.70 -0.03 o 691 0.80 Yes Yes
2015PS O C 2015-12-14.28400 1.000E-05 02:07:22.090 1.500E-01 0.500 F -0.105 -0.009 +30° 10' 04.10" 1.000E-01 0.500 F 0.207 -0.118 20.6 V 0.70 -0.37 o 691 0.24 Yes Yes
2015PS O C 2015-12-14.28648 1.000E-05 02:07:22.520 1.500E-01 0.500 F -0.105 0.200 +30° 10' 03.10" 1.000E-01 0.500 F 0.207 -0.261 20.6 V 0.70 -0.37 o 691 0.66 Yes Yes
2015PS O C 2015-12-14.28921 1.000E-05 02:07:22.950 1.500E-01 0.500 F -0.105 -0.135 +30° 10' 02.70" 1.000E-01 0.500 F 0.207 0.284 20.5 V 0.70 -0.47 o 691 0.63 Yes Yes
2015VD66 O C 2015-12-14.30560 1.000E-05 02:57:33.150 1.500E-01 0.500 F -0.299 -0.268 +10° 58' 33.20" 1.000E-01 0.500 F 0.348 -0.086 21.0 V 0.70 -0.04 o 691 0.57 Yes Yes
2015VD66 O C 2015-12-14.30832 1.000E-05 02:57:32.840 1.500E-01 0.500 F -0.299 0.069 +10° 58' 37.60" 1.000E-01 0.500 F 0.348 0.159 20.7 V 0.70 -0.34 o 691 0.35 Yes Yes
2015VD66 O C 2015-12-14.31104 1.000E-05 02:57:32.490 1.500E-01 0.500 F -0.299 -0.185 +10° 58' 41.60" 1.000E-01 0.500 F 0.348 0.005 20.8 V 0.70 -0.24 o 691 0.37 Yes Yes
2015XC352 O C 2015-12-14.32518 1.000E-05 05:31:06.030 1.500E-01 0.500 F -0.265 -0.308 -08° 10' 33.40" 1.000E-01 0.500 F 0.091 -0.036 20.2 V 0.70 -0.24 o 691 0.62 Yes Yes
2015XC352 O C 2015-12-14.32766 1.000E-05 05:31:05.240 1.500E-01 0.500 F -0.265 -0.495 -08° 10' 34.80" 1.000E-01 0.500 F 0.091 0.029 20.1 V 0.70 -0.34 o 691 1.00 Yes Yes
2015XC352 O C 2015-12-14.33015 1.000E-05 05:31:04.500 1.500E-01 0.500 F -0.265 0.106 -08° 10' 36.60" 1.000E-01 0.500 F 0.091 -0.306 20.2 V 0.70 -0.24 o 691 0.65 Yes Yes
2015XD130 O C 2015-12-14.33347 1.000E-05 05:11:01.030 1.500E-01 0.500 F -0.039 -0.273 +07° 31' 11.70" 1.000E-01 0.500 F 0.160 -0.130 18.9 V 0.70 -0.01 o 691 0.61 Yes Yes
2015XD130 O C 2015-12-14.33619 1.000E-05 05:11:00.480 1.500E-01 0.500 F -0.039 -0.148 +07° 30' 59.50" 1.000E-01 0.500 F 0.160 -0.146 19.3 V 0.70 0.39 o 691 0.42 Yes Yes
2015XD130 O C 2015-12-14.33868 1.000E-05 05:10:59.960 1.500E-01 0.500 F -0.039 -0.280 +07° 30' 48.10" 1.000E-01 0.500 F 0.160 -0.391 19.3 V 0.70 0.39 o 691 0.97 Yes Yes
2015XQ261 O C H 2015-12-14.34313 1.000E-05 05:07:31.180 1.500E-01 0.500 F -0.178 -0.262 +16° 34' 24.60" 1.000E-01 0.500 F 0.181 -0.287 22.0 V 0.70 0.21 o 691 0.89 Yes Yes
2015XQ261 O C H 2015-12-14.34870 1.000E-05 05:07:31.440 1.500E-01 0.500 F -0.178 -0.057 +16° 34' 23.40" 1.000E-01 0.500 F 0.181 0.027 22.0 V 0.70 0.21 o 691 0.15 Yes Yes
2015XQ261 O C H 2015-12-14.35428 1.000E-05 05:07:31.700 1.500E-01 0.500 F -0.178 0.134 +16° 34' 22.20" 1.000E-01 0.500 F 0.181 0.352 21.9 V 0.70 0.11 o 691 0.84 Yes Yes
2015XH261 O C H 2015-12-14.38247 1.000E-05 05:29:40.740 1.500E-01 0.500 F -0.108 0.279 +25° 16' 32.00" 1.000E-01 0.500 F 0.183 -0.401 o 691 1.17 Yes No
2015XH261 O C H 2015-12-14.38523 1.000E-05 05:29:40.690 1.500E-01 0.500 F -0.108 0.338 +25° 16' 36.50" 1.000E-01 0.500 F 0.183 -0.143 o 691 0.85 Yes No
2015XH261 O C H 2015-12-14.38798 1.000E-05 05:29:40.590 1.500E-01 0.500 F -0.108 -0.290 +25° 16' 41.40" 1.000E-01 0.500 F 0.183 0.538 21.5 V 0.70 0.47 o 691 1.47 Yes Yes
2015VE66 O C H 2015-12-14.43054 1.000E-05 09:01:16.820 1.500E-01 0.500 F 0.101 -0.377 -17° 11' 13.00" 1.000E-01 0.500 F -0.149 -0.098 21.5 V 0.70 0.27 o 691 0.81 Yes Yes
2015VE66 O C H 2015-12-14.43557 1.000E-05 09:01:17.130 1.500E-01 0.500 F 0.101 0.448 -17° 11' 15.60" 1.000E-01 0.500 F -0.149 -0.455 21.1 V 0.70 -0.13 o 691 1.34 Yes Yes
2015VE66 O C H 2015-12-14.44061 1.000E-05 09:01:17.360 1.500E-01 0.500 F 0.101 0.133 -17° 11' 17.40" 1.000E-01 0.500 F -0.149 -0.034 21.2 V 0.70 -0.03 o 691 0.29 Yes Yes
2015VL105 O C H 2015-12-14.44680 1.000E-05 09:42:04.140 1.500E-01 0.500 F 0.089 -1.204 -18° 51' 38.20" 1.000E-01 0.500 F -0.175 -0.268 o 691 2.52 Yes No
2015VL105 O C H 2015-12-14.44952 1.000E-05 09:42:04.300 1.500E-01 0.500 F 0.089 -0.244 -18° 51' 46.00" 1.000E-01 0.500 F -0.175 -0.237 20.8 V 0.70 0.76 o 691 0.70 Yes Yes
2015VL105 O C H 2015-12-14.45224 1.000E-05 09:42:04.420 1.500E-01 0.500 F 0.089 0.150 -18° 51' 53.00" 1.000E-01 0.500 F -0.175 0.592 20.5 V 0.70 0.46 o 691 1.25 Yes Yes
2005EW169 O C H 2015-12-14.45946 1.000E-05 11:54:43.950 1.500E-01 0.500 F 0.081 0.056 -02° 15' 10.00" 1.000E-01 0.500 F 0.143 0.764 20.5 V 0.70 -0.49 o 691 1.54 Yes Yes
2005EW169 O C H 2015-12-14.46217 1.000E-05 11:54:44.340 1.500E-01 0.500 F 0.081 -0.345 -02° 15' 13.20" 1.000E-01 0.500 F 0.143 0.501 20.4 V 0.70 -0.59 o 691 1.23 Yes Yes
2015OL35 O C H 2015-12-14.46456 1.000E-05 12:07:06.310 1.500E-01 0.500 F 0.280 0.235 -03° 31' 03.00" 1.000E-01 0.500 F 0.105 -0.692 19.5 V 0.70 0.01 o 691 1.46 Yes Yes
2015OL35 O C H 2015-12-14.46611 1.000E-05 12:07:06.430 1.500E-01 0.500 F 0.280 -0.798 -03° 31' 03.10" 1.000E-01 0.500 F 0.105 -0.392 19.5 V 0.70 0.01 o 691 1.78 Yes Yes
2015OL35 O C H 2015-12-14.46768 1.000E-05 12:07:06.670 1.500E-01 0.500 F 0.280 -0.071 -03° 31' 03.30" 1.000E-01 0.500 F 0.105 -0.187 19.3 V 0.70 -0.19 o 691 0.40 Yes Yes
1998SG2 O C 2015-12-18.31250 1.000E-05 08:01:13.220 1.500E-01 0.500 F 0.019 -0.058 +16° 24' 52.00" 1.000E-01 0.500 F 0.176 -0.015 20.7 V 0.70 -0.65 o 691 0.12 Yes Yes
1998SG2 O C 2015-12-18.33144 1.000E-05 08:01:11.890 1.500E-01 0.500 F 0.019 0.008 +16° 24' 56.50" 1.000E-01 0.500 F 0.176 -0.175 21.0 V 0.70 -0.35 o 691 0.35 Yes Yes
1998SG2 O C 2015-12-18.35724 1.000E-05 08:01:10.060 1.500E-01 0.500 F 0.019 -0.061 +16° 25' 02.80" 1.000E-01 0.500 F 0.176 -0.178 20.8 V 0.70 -0.55 o 691 0.38 Yes Yes
1998SG2 O C H 2015-12-19.21384 1.000E-05 08:00:12.040 1.500E-01 0.500 F 0.083 -0.459 +16° 28' 28.90" 1.000E-01 0.500 F 0.181 -0.384 20.7 V 0.70 -0.64 o 691 1.20 Yes Yes
1998SG2 O C H 2015-12-19.21985 1.000E-05 08:00:11.650 1.500E-01 0.500 F 0.083 0.037 +16° 28' 30.50" 1.000E-01 0.500 F 0.181 -0.349 20.9 V 0.70 -0.44 o 691 0.70 Yes Yes
1998SG2 O C H 2015-12-19.22585 1.000E-05 08:00:11.220 1.500E-01 0.500 F 0.083 -0.041 +16° 28' 32.50" 1.000E-01 0.500 F 0.181 0.090 21.0 V 0.70 -0.34 o 691 0.20 Yes Yes
2015YZ O C H 2015-12-19.23554 1.000E-05 03:42:40.980 1.500E-01 0.500 F 0.020 0.128 +31° 17' 41.00" 1.000E-01 0.500 F 0.243 -0.564 21.5 V 0.70 0.00 o 691 1.17 Yes Yes
2015YZ O C H 2015-12-19.24085 1.000E-05 03:42:40.460 1.500E-01 0.500 F 0.020 0.633 +31° 17' 41.40" 1.000E-01 0.500 F 0.243 0.331 21.5 V 0.70 0.00 o 691 1.45 Yes Yes
2015YZ O C H 2015-12-19.24615 1.000E-05 03:42:39.850 1.500E-01 0.500 F 0.020 -0.035 +31° 17' 40.40" 1.000E-01 0.500 F 0.243 -0.157 21.2 V 0.70 -0.30 o 691 0.32 Yes Yes
2015XL379 O C H 2015-12-19.26766 1.000E-05 06:46:38.660 1.500E-01 0.500 F 0.067 -0.002 +26° 52' 49.80" 1.000E-01 0.500 F 0.185 -0.565 o 691 1.20 Yes No
2015XL379 O C H 2015-12-19.27297 1.000E-05 06:46:38.240 1.500E-01 0.500 F 0.067 0.509 +26° 52' 53.00" 1.000E-01 0.500 F 0.185 -0.412 o 691 1.39 Yes No
2015XL379 O C H 2015-12-19.27828 1.000E-05 06:46:37.760 1.500E-01 0.500 F 0.067 0.224 +26° 52' 56.30" 1.000E-01 0.500 F 0.185 -0.153 o 691 0.58 Yes No
2015YU7 O C 2016-01-01.09288 1.000E-05 02:29:41.990 1.500E-01 0.500 F -0.316 -0.216 +01° 41' 43.60" 1.000E-01 0.500 F 0.207 -0.123 20.2 V 0.70 0.25 o 691 0.50 Yes Yes
2015YU7 O C 2016-01-01.09519 1.000E-05 02:29:42.460 1.500E-01 0.500 F -0.316 -0.039 +01° 41' 46.00" 1.000E-01 0.500 F 0.207 0.143 19.9 V 0.70 -0.05 o 691 0.30 Yes Yes
2015YU7 O C 2016-01-01.09749 1.000E-05 02:29:42.890 1.500E-01 0.500 F -0.316 -0.429 +01° 41' 47.90" 1.000E-01 0.500 F 0.207 -0.083 20.0 V 0.70 0.05 o 691 0.88 Yes Yes
2008UD1 O C H 2016-01-01.36547 1.000E-05 09:12:58.250 1.500E-01 0.500 F 0.201 0.038 -23° 18' 44.80" 1.000E-01 0.500 F -0.150 -0.158 18.3 V 0.70 0.80 o 691 0.33 Yes Yes
2008UD1 O C H 2016-01-01.36703 1.000E-05 09:12:58.990 1.500E-01 0.500 F 0.201 0.099 -23° 18' 51.50" 1.000E-01 0.500 F -0.150 -0.088 18.2 V 0.70 0.70 o 691 0.27 Yes Yes
2008UD1 O C H 2016-01-01.36859 1.000E-05 09:12:59.720 1.500E-01 0.500 F 0.201 0.022 -23° 18' 58.30" 1.000E-01 0.500 F -0.150 -0.120 18.2 V 0.70 0.70 o 691 0.25 Yes Yes
2015YX7 O C H 2016-01-01.37819 1.000E-05 09:21:19.360 1.500E-01 0.500 F 0.102 -0.017 +01° 07' 51.50" 1.000E-01 0.500 F 0.195 -0.055 21.0 V 0.70 0.59 o 691 0.12 Yes Yes
2015YX7 O C H 2016-01-01.38443 1.000E-05 09:21:18.990 1.500E-01 0.500 F 0.102 0.614 +01° 08' 02.20" 1.000E-01 0.500 F 0.195 -0.971 o 691 2.31 Yes No
2015YX7 O C H 2016-01-01.39067 1.000E-05 09:21:18.580 1.500E-01 0.500 F 0.102 0.657 +01° 08' 13.70" 1.000E-01 0.500 F 0.195 -1.085 o 691 2.56 Yes No
2016AF9 O C 2016-01-02.10618 1.000E-05 03:33:42.550 1.500E-01 0.500 F -0.239 -0.717 +09° 30' 11.30" 1.000E-01 0.500 F 0.209 -0.474 20.4 V 0.70 -0.31 o 691 1.73 Yes Yes
2016AF9 O C 2016-01-02.11104 1.000E-05 03:33:43.920 1.500E-01 0.500 F -0.239 -0.838 +09° 30' 47.90" 1.000E-01 0.500 F 0.209 -0.487 20.4 V 0.70 -0.31 o 691 1.96 Yes Yes
2016AF9 O C 2016-01-02.11589 1.000E-05 03:33:45.290 1.500E-01 0.500 F -0.239 -0.890 +09° 31' 23.70" 1.000E-01 0.500 F 0.209 -1.189 20.3 V 0.70 -0.41 o 691 3.00 Yes Yes
2015YS7 O C 2016-01-02.22852 1.000E-05 08:40:41.080 1.500E-01 0.500 F 0.121 -0.393 +08° 42' 12.00" 1.000E-01 0.500 F 0.152 0.230 20.3 V 0.70 -0.09 o 691 0.92 Yes Yes
2015YS7 O C 2016-01-02.23384 1.000E-05 08:40:41.500 1.500E-01 0.500 F 0.121 -0.551 +08° 41' 53.20" 1.000E-01 0.500 F 0.152 0.926 20.5 V 0.70 0.11 o 691 2.17 Yes Yes
2015YS7 O C 2016-01-02.23916 1.000E-05 08:40:41.950 1.500E-01 0.500 F 0.121 -0.241 +08° 41' 32.50" 1.000E-01 0.500 F 0.152 -0.270 20.4 V 0.70 0.01 o 691 0.73 Yes Yes
2016AN9 O C m 2016-01-02.27614 1.000E-05 04:45:21.140 1.500E-01 0.500 F -0.268 0.768 +23° 58' 34.40" 1.000E-01 0.500 F 0.154 -0.186 o 691 1.67 Yes No
2016AN9 O C m 2016-01-02.28099 1.000E-05 04:45:22.270 1.500E-01 0.500 F -0.268 -0.759 +24° 00' 11.80" 1.000E-01 0.500 F 0.154 -1.883 21.1 V 0.70 0.67 o 691 3.83 No Yes
2016AN9 O C m 2016-01-02.28584 1.000E-05 04:45:23.580 1.500E-01 0.500 F -0.268 0.077 +24° 01' 52.40" 1.000E-01 0.500 F 0.154 -0.413 o 691 0.90 Yes No
2016AW8 O C m 2016-01-02.28853 1.000E-05 04:29:32.670 1.500E-01 0.500 F -0.231 0.042 +23° 50' 45.90" 1.000E-01 0.500 F 0.272 -0.297 20.8 V 0.70 -0.44 o 691 0.64 Yes Yes
2016AW8 O C m 2016-01-02.29361 1.000E-05 04:29:35.520 1.500E-01 0.500 F -0.231 0.380 +23° 51' 17.60" 1.000E-01 0.500 F 0.272 -0.369 o 691 1.16 Yes No
2016AW8 O C m 2016-01-02.29869 1.000E-05 04:29:38.320 1.500E-01 0.500 F -0.231 0.002 +23° 51' 49.70" 1.000E-01 0.500 F 0.272 -0.003 20.8 V 0.70 -0.44 o 691 0.01 Yes Yes
2015YS1 O C 2016-01-02.31005 1.000E-05 09:41:25.120 1.500E-01 0.500 F 0.057 0.120 -03° 13' 15.00" 1.000E-01 0.500 F 0.071 -0.257 19.9 V 0.70 -0.36 o 691 0.57 Yes Yes
2015YS1 O C 2016-01-02.31536 1.000E-05 09:41:24.510 1.500E-01 0.500 F 0.057 0.213 -03° 13' 31.50" 1.000E-01 0.500 F 0.071 0.460 20.0 V 0.70 -0.26 o 691 1.03 Yes Yes
2015YS1 O C 2016-01-02.32068 1.000E-05 09:41:23.850 1.500E-01 0.500 F 0.057 -0.406 -03° 13' 49.30" 1.000E-01 0.500 F 0.071 -0.094 20.8 V 0.70 0.54 o 691 0.85 Yes Yes
2015YR1 O C H 2016-01-02.32378 1.000E-05 10:10:05.100 1.500E-01 0.500 F 0.214 -0.431 -00° 23' 03.70" 1.000E-01 0.500 F 0.104 -0.129 20.5 V 0.70 0.37 o 691 0.90 Yes Yes
2015YR1 O C H 2016-01-02.32886 1.000E-05 10:10:04.010 1.500E-01 0.500 F 0.214 -0.544 -00° 23' 21.40" 1.000E-01 0.500 F 0.104 -0.491 20.3 V 0.70 0.17 o 691 1.47 Yes Yes
2015YR1 O C H 2016-01-02.33395 1.000E-05 10:10:03.000 1.500E-01 0.500 F 0.214 0.585 -00° 23' 37.50" 1.000E-01 0.500 F 0.104 0.781 20.9 V 0.70 0.77 o 691 1.96 Yes Yes
2015YT9 O C H 2016-01-02.40292 1.000E-05 09:04:33.970 1.500E-01 0.500 F 0.191 0.316 +06° 09' 08.80" 1.000E-01 0.500 F 0.184 -0.530 21.6 V 0.70 1.33 o 691 1.24 Yes Yes
2015YT9 O C H 2016-01-02.40823 1.000E-05 09:04:32.690 1.500E-01 0.500 F 0.191 -0.275 +06° 09' 22.90" 1.000E-01 0.500 F 0.184 -0.059 20.9 V 0.70 0.63 o 691 0.57 Yes Yes
2015YT9 O C H 2016-01-02.41354 1.000E-05 09:04:31.450 1.500E-01 0.500 F 0.191 -0.270 +06° 09' 35.90" 1.000E-01 0.500 F 0.184 -0.685 20.9 V 0.70 0.63 o 691 1.48 Yes Yes
2015YX7 O C 2016-01-02.41715 1.000E-05 09:20:22.780 1.500E-01 0.500 F 0.135 -0.224 +01° 39' 51.50" 1.000E-01 0.500 F 0.209 0.227 20.3 V 0.70 -0.12 o 691 0.64 Yes Yes
2015YX7 O C 2016-01-02.42338 1.000E-05 09:20:22.370 1.500E-01 0.500 F 0.135 0.037 +01° 40' 02.50" 1.000E-01 0.500 F 0.209 -0.200 20.5 V 0.70 0.08 o 691 0.41 Yes Yes
2015YX7 O C 2016-01-02.42962 1.000E-05 09:20:21.910 1.500E-01 0.500 F 0.135 -0.443 +01° 40' 14.60" 1.000E-01 0.500 F 0.209 0.456 20.2 V 0.70 -0.22 o 691 1.28 Yes Yes
2016AM2 O C H 2016-01-02.43458 1.000E-05 07:31:31.240 1.500E-01 0.500 F -0.069 0.885 +31° 17' 02.20" 1.000E-01 0.500 F 0.217 -0.027 20.9 V 0.70 0.28 o 691 1.84 Yes Yes
2016AM2 O C H 2016-01-02.43989 1.000E-05 07:31:32.880 1.500E-01 0.500 F -0.069 0.113 +31° 16' 54.60" 1.000E-01 0.500 F 0.217 -0.155 20.6 V 0.70 -0.02 o 691 0.40 Yes Yes
2016AM2 O C H 2016-01-02.44520 1.000E-05 07:31:34.490 1.500E-01 0.500 F -0.069 -1.124 +31° 16' 47.40" 1.000E-01 0.500 F 0.217 0.194 20.8 V 0.70 0.18 o 691 2.36 Yes Yes
2008UD1 O C 2016-01-02.47857 1.000E-05 09:22:26.180 1.500E-01 0.500 F 0.248 -0.110 -24° 39' 29.50" 1.000E-01 0.500 F 0.026 -0.175 18.4 V 0.70 0.94 o 691 0.42 Yes Yes
2008UD1 O C 2016-01-02.48273 1.000E-05 09:22:28.290 1.500E-01 0.500 F 0.248 -0.317 -24° 39' 47.50" 1.000E-01 0.500 F 0.026 -0.079 18.5 V 0.70 1.04 o 691 0.67 Yes Yes
2008UD1 O C 2016-01-02.48688 1.000E-05 09:22:30.400 1.500E-01 0.500 F 0.248 -0.475 -24° 40' 05.60" 1.000E-01 0.500 F 0.026 -0.139 18.3 V 0.70 0.84 o 691 1.02 Yes Yes
2015TT351 O C 2016-01-03.10287 1.000E-05 01:37:09.660 1.500E-01 0.500 F -0.239 -0.364 +17° 17' 54.90" 1.000E-01 0.500 F 0.326 0.248 21.5 V 0.70 -0.15 o 691 0.89 Yes Yes
2010UB8 O C H 2016-01-03.10287 1.000E-05 01:36:57.860 1.500E-01 0.500 F -0.301 0.709 +17° 30' 39.40" 1.000E-01 0.500 F 0.334 -0.985 o 691 2.45 Yes No
2015TT351 O C 2016-01-03.10797 1.000E-05 01:37:09.960 1.500E-01 0.500 F -0.301 0.184 +17° 18' 03.10" 1.000E-01 0.500 F 0.334 0.196 20.9 V 0.70 -0.75 o 691 0.54 Yes Yes
2010UB8 O C H 2016-01-03.10797 1.000E-05 01:36:58.540 1.500E-01 0.500 F -0.301 0.350 +17° 31' 04.20" 1.000E-01 0.500 F 0.334 -0.054 o 691 0.71 Yes No
2015TT351 O C 2016-01-03.11305 1.000E-05 01:37:10.200 1.500E-01 0.500 F -0.301 -0.176 +17° 18' 11.20" 1.000E-01 0.500 F 0.334 0.088 21.3 V 0.70 -0.35 o 691 0.40 Yes Yes
2010UB8 O C H 2016-01-03.11305 1.000E-05 01:36:59.270 1.500E-01 0.500 F -0.301 0.744 +17° 31' 28.40" 1.000E-01 0.500 F 0.334 0.379 o 691 1.69 Yes No
1998WT24 O C 2016-01-03.14738 1.000E-05 22:51:34.430 1.500E-01 0.500 F -0.028 -0.039 +09° 34' 08.00" 1.000E-01 0.500 F 0.170 0.015 17.4 V 0.70 0.46 o 691 0.08 Yes Yes
1998WT24 O C 2016-01-03.15062 1.000E-05 22:51:33.830 1.500E-01 0.500 F -0.028 -0.163 +09° 34' 07.30" 1.000E-01 0.500 F 0.170 0.013 17.3 V 0.70 0.36 o 691 0.33 Yes Yes
1998WT24 O C 2016-01-03.15384 1.000E-05 22:51:33.240 1.500E-01 0.500 F -0.028 -0.219 +09° 34' 06.70" 1.000E-01 0.500 F 0.170 0.109 17.3 V 0.70 0.36 o 691 0.49 Yes Yes
2016AM2 O C 2016-01-03.16807 1.000E-05 07:36:07.090 1.500E-01 0.500 F -0.106 -0.110 +31° 04' 39.50" 1.000E-01 0.500 F 0.225 -0.183 20.8 V 0.70 -0.10 o 691 0.46 Yes Yes
2016AM2 O C 2016-01-03.17338 1.000E-05 07:36:08.540 1.500E-01 0.500 F -0.106 0.300 +31° 04' 37.40" 1.000E-01 0.500 F 0.225 -0.177 20.9 V 0.70 0.00 o 691 0.83 Yes Yes
2016AM2 O C 2016-01-03.17869 1.000E-05 07:36:09.890 1.500E-01 0.500 F -0.106 -0.379 +31° 04' 35.50" 1.000E-01 0.500 F 0.225 0.074 21.0 V 0.70 0.10 o 691 0.92 Yes Yes
2016AL2 O C H 2016-01-03.19881 1.000E-05 07:15:08.120 1.500E-01 0.500 F -0.106 -0.119 +30° 28' 19.90" 1.000E-01 0.500 F 0.184 -0.617 o 691 1.31 Yes No
2016AL2 O C H 2016-01-03.20551 1.000E-05 07:15:08.070 1.500E-01 0.500 F -0.106 0.859 +30° 28' 26.90" 1.000E-01 0.500 F 0.184 -2.596 o 691 5.26 No No
2016AL2 O C H 2016-01-03.21222 1.000E-05 07:15:07.880 1.500E-01 0.500 F -0.106 0.062 +30° 28' 37.20" 1.000E-01 0.500 F 0.184 -1.271 o 691 2.66 Yes No
2016AG2 O C H 2016-01-03.25376 1.000E-05 08:52:14.260 1.500E-01 0.500 F 0.029 0.513 +24° 08' 52.60" 1.000E-01 0.500 F 0.302 -0.019 20.2 V 0.70 0.11 o 691 1.22 Yes Yes
2016AG2 O C H 2016-01-03.25861 1.000E-05 08:52:11.810 1.500E-01 0.500 F 0.029 -1.298 +24° 08' 05.30" 1.000E-01 0.500 F 0.302 -1.608 20.4 V 0.70 0.31 o 691 3.79 No Yes
2016AG2 O C H 2016-01-03.26346 1.000E-05 08:52:09.450 1.500E-01 0.500 F 0.029 -1.834 +24° 07' 18.90" 1.000E-01 0.500 F 0.302 -2.281 20.4 V 0.70 0.31 o 691 5.37 No Yes
2016AC9 O C H 2016-01-03.32476 1.000E-05 04:38:48.060 1.500E-01 0.500 F -0.131 -0.077 +24° 49' 41.50" 1.000E-01 0.500 F 0.218 0.130 20.4 V 0.70 0.42 o 691 0.34 Yes Yes
2016AC9 O C H 2016-01-03.32962 1.000E-05 04:38:49.920 1.500E-01 0.500 F -0.131 0.368 +24° 49' 15.90" 1.000E-01 0.500 F 0.218 -0.072 20.4 V 0.70 0.42 o 691 0.83 Yes Yes
2016AC9 O C H 2016-01-03.33447 1.000E-05 04:38:51.710 1.500E-01 0.500 F -0.131 -0.124 +24° 48' 50.20" 1.000E-01 0.500 F 0.218 -0.408 20.3 V 0.70 0.32 o 691 0.93 Yes Yes
2016AG9 O C H 2016-01-03.35425 1.000E-05 07:08:51.110 1.500E-01 0.500 F -0.118 -0.681 +21° 09' 48.50" 1.000E-01 0.500 F 0.193 -0.532 19.9 V 0.70 0.43 o 691 1.81 Yes Yes
2016AG9 O C H 2016-01-03.35887 1.000E-05 07:08:48.880 1.500E-01 0.500 F -0.118 0.543 +21° 09' 21.80" 1.000E-01 0.500 F 0.193 -0.844 o 691 2.05 Yes No
2016AG9 O C H 2016-01-03.36349 1.000E-05 07:08:46.510 1.500E-01 0.500 F -0.118 -0.213 +21° 08' 56.20" 1.000E-01 0.500 F 0.193 -0.040 19.9 V 0.70 0.43 o 691 0.45 Yes Yes
2015YT9 O C 2016-01-12.31102 1.000E-05 08:29:14.400 1.500E-01 0.500 F 0.022 0.341 +12° 35' 25.20" 1.000E-01 0.500 F 0.168 -0.394 20.6 V 0.70 0.38 o 691 1.05 Yes Yes
2015YT9 O C 2016-01-12.32995 1.000E-05 08:29:10.470 1.500E-01 0.500 F 0.022 -0.165 +12° 36' 04.80" 1.000E-01 0.500 F 0.168 -0.070 20.1 V 0.70 -0.12 o 691 0.36 Yes Yes
2015YT9 O C 2016-01-12.34886 1.000E-05 08:29:06.580 1.500E-01 0.500 F 0.022 -0.128 +12° 36' 44.10" 1.000E-01 0.500 F 0.168 0.072 20.0 V 0.70 -0.22 o 691 0.29 Yes Yes
2005WE O C 2016-01-12.37952 1.000E-05 08:14:14.240 1.500E-01 0.500 F -0.016 -0.503 +16° 27' 40.60" 1.000E-01 0.500 F 0.157 0.058 19.3 V 0.70 -0.01 o 691 1.02 Yes Yes
2005WE O C 2016-01-12.39845 1.000E-05 08:14:10.650 1.500E-01 0.500 F -0.016 -0.420 +16° 27' 27.00" 1.000E-01 0.500 F 0.157 0.256 19.2 V 0.70 -0.11 o 691 0.99 Yes Yes
2005WE O C 2016-01-12.41739 1.000E-05 08:14:07.080 1.500E-01 0.500 F -0.016 -0.097 +16° 27' 12.90" 1.000E-01 0.500 F 0.157 0.026 19.2 V 0.70 -0.11 o 691 0.20 Yes Yes
2015SV2 O C 2016-01-12.44950 1.000E-05 07:42:53.770 1.500E-01 0.500 F 0.067 -0.158 +15° 06' 20.10" 1.000E-01 0.500 F 0.149 -0.034 18.5 V 0.70 0.13 o 691 0.32 Yes Yes
2015SV2 O C 2016-01-12.46934 1.000E-05 07:42:54.130 1.500E-01 0.500 F 0.067 -0.101 +15° 05' 46.90" 1.000E-01 0.500 F 0.149 0.097 18.5 V 0.70 0.13 o 691 0.28 Yes Yes
2015SV2 O C 2016-01-12.48828 1.000E-05 07:42:54.500 1.500E-01 0.500 F 0.067 -0.062 +15° 05' 15.00" 1.000E-01 0.500 F 0.149 0.058 18.5 V 0.70 0.13 o 691 0.17 Yes Yes
2016AR130 O C H 2016-01-13.07250 1.000E-05 05:08:52.210 1.500E-01 0.500 F -0.092 0.611 +15° 44' 17.60" 1.000E-01 0.500 F 0.189 -0.135 20.1 V 0.70 0.02 o 691 1.27 Yes Yes
2016AR130 O C H 2016-01-13.07406 1.000E-05 05:08:51.340 1.500E-01 0.500 F -0.092 -0.293 +15° 44' 25.50" 1.000E-01 0.500 F 0.189 0.082 20.0 V 0.70 -0.08 o 691 0.62 Yes Yes
2016AR130 O C H 2016-01-13.07586 1.000E-05 05:08:50.460 1.500E-01 0.500 F -0.092 0.454 +15° 44' 34.00" 1.000E-01 0.500 F 0.189 -0.282 20.1 V 0.70 0.02 o 691 1.09 Yes Yes
2016AW65 O C H 2016-01-13.20100 1.000E-05 05:29:32.830 1.500E-01 0.500 F -0.128 0.537 +02° 07' 55.50" 1.000E-01 0.500 F 0.110 -1.557 o 691 3.18 No No
2016AW65 O C H 2016-01-13.20327 1.000E-05 05:29:32.730 1.500E-01 0.500 F -0.128 -0.170 +02° 08' 09.60" 1.000E-01 0.500 F 0.110 0.332 o 691 0.77 Yes No
2016AW65 O C H 2016-01-13.20552 1.000E-05 05:29:32.720 1.500E-01 0.500 F -0.128 0.467 +02° 08' 21.60" 1.000E-01 0.500 F 0.110 0.230 o 691 1.08 Yes No
2015YD18 O C H 2016-01-13.22897 1.000E-05 05:35:22.350 1.500E-01 0.500 F -0.086 0.358 +22° 55' 04.00" 1.000E-01 0.500 F 0.244 -0.320 o 691 0.98 Yes No
2015YD18 O C H 2016-01-13.23169 1.000E-05 05:35:21.950 1.500E-01 0.500 F -0.086 -0.419 +22° 54' 54.10" 1.000E-01 0.500 F 0.244 -1.140 o 691 2.48 Yes No
2015YD18 O C H 2016-01-13.23441 1.000E-05 05:35:21.700 1.500E-01 0.500 F -0.086 0.875 +22° 54' 46.10" 1.000E-01 0.500 F 0.244 -0.060 o 691 1.79 Yes No
1999TX16 O C 2016-01-13.51929 1.000E-05 15:10:24.620 1.500E-01 0.500 F 0.142 -0.397 +11° 11' 04.60" 1.000E-01 0.500 F 0.069 0.235 o 691 0.92 Yes No
1999TX16 O C 2016-01-13.53112 1.000E-05 15:10:25.550 1.500E-01 0.500 F 0.142 -0.272 +11° 11' 01.80" 1.000E-01 0.500 F 0.069 0.098 o 691 0.58 Yes No
1999TX16 O C 2016-01-13.54295 1.000E-05 15:10:26.480 1.500E-01 0.500 F 0.142 -0.135 +11° 10' 59.00" 1.000E-01 0.500 F 0.069 -0.037 o 691 0.28 Yes No
2007BG O C H 2016-01-14.08747 1.000E-05 01:02:08.420 1.500E-01 0.500 F -0.160 -0.709 -22° 09' 55.20" 1.000E-01 0.500 F 0.179 -0.323 20.7 V 0.70 0.12 o 691 1.58 Yes Yes
2007BG O C H 2016-01-14.08996 1.000E-05 01:02:09.070 1.500E-01 0.500 F -0.160 -1.958 -22° 09' 49.80" 1.000E-01 0.500 F 0.179 -0.846 20.4 V 0.70 -0.18 o 691 4.22 No Yes
2007BG O C H 2016-01-14.09244 1.000E-05 01:02:09.890 1.500E-01 0.500 F -0.160 -0.806 -22° 09' 42.90" 1.000E-01 0.500 F 0.179 0.153 20.8 V 0.70 0.22 o 691 1.70 Yes Yes
2015TE323 O C H 2016-01-14.10170 1.000E-05 01:14:31.670 1.500E-01 0.500 F -0.097 -0.118 +00° 20' 33.80" 1.000E-01 0.500 F 0.151 -0.802 o 691 1.62 Yes No
2015TE323 O C H 2016-01-14.10650 1.000E-05 01:14:31.970 1.500E-01 0.500 F -0.097 0.266 +00° 20' 34.90" 1.000E-01 0.500 F 0.151 -1.232 o 691 2.52 Yes No
2015TE323 O C H 2016-01-14.11130 1.000E-05 01:14:32.230 1.500E-01 0.500 F -0.097 0.049 +00° 20' 37.20" 1.000E-01 0.500 F 0.151 -0.463 o 691 0.93 Yes No
2016AU8 O C 2016-01-14.11661 1.000E-05 01:06:43.600 1.500E-01 0.500 F -0.172 0.043 +21° 01' 13.50" 1.000E-01 0.500 F 0.328 -0.050 19.9 V 0.70 -0.52 o 691 0.13 Yes Yes
2016AU8 O C 2016-01-14.11910 1.000E-05 01:06:44.410 1.500E-01 0.500 F -0.172 0.412 +21° 01' 14.70" 1.000E-01 0.500 F 0.328 0.203 20.0 V 0.70 -0.42 o 691 0.92 Yes Yes
2016AU8 O C 2016-01-14.12160 1.000E-05 01:06:45.160 1.500E-01 0.500 F -0.172 -0.105 +21° 01' 15.70" 1.000E-01 0.500 F 0.328 0.255 19.9 V 0.70 -0.52 o 691 0.55 Yes Yes
2011AM24 O C H 2016-01-14.15079 1.000E-05 02:53:29.300 1.500E-01 0.500 F -0.267 -0.311 +02° 13' 30.50" 1.000E-01 0.500 F 0.254 0.262 20.8 V 0.70 -0.31 o 691 0.81 Yes Yes
2011AM24 O C H 2016-01-14.15420 1.000E-05 02:53:29.770 1.500E-01 0.500 F -0.267 0.100 +02° 13' 36.60" 1.000E-01 0.500 F 0.254 -0.892 21.0 V 0.70 -0.11 o 691 1.80 Yes Yes
2016AV65 O C H 2016-01-14.16942 1.000E-05 05:27:56.940 1.500E-01 0.500 F -0.163 -0.084 -11° 25' 35.40" 1.000E-01 0.500 F 0.070 -0.172 o 691 0.39 Yes No
2016AV65 O C H 2016-01-14.17144 1.000E-05 05:27:58.200 1.500E-01 0.500 F -0.163 0.903 -11° 25' 47.40" 1.000E-01 0.500 F 0.070 -0.934 o 691 2.67 Yes No
2016AV65 O C H 2016-01-14.17346 1.000E-05 05:27:59.370 1.500E-01 0.500 F -0.163 0.575 -11° 25' 58.40" 1.000E-01 0.500 F 0.070 -0.701 o 691 1.86 Yes No
2016AM131 O C 2016-01-14.17599 1.000E-05 05:19:27.160 1.500E-01 0.500 F -0.226 -0.235 -02° 39' 15.10" 1.000E-01 0.500 F 0.012 0.634 19.5 V 0.70 -0.23 o 691 1.36 Yes Yes
2016AM131 O C 2016-01-14.17784 1.000E-05 05:19:26.780 1.500E-01 0.500 F -0.226 -0.113 -02° 39' 17.40" 1.000E-01 0.500 F 0.012 -0.086 19.8 V 0.70 0.07 o 691 0.29 Yes Yes
2016AM131 O C 2016-01-14.17970 1.000E-05 05:19:26.400 1.500E-01 0.500 F -0.226 0.041 -02° 39' 19.10" 1.000E-01 0.500 F 0.012 -0.198 19.6 V 0.70 -0.13 o 691 0.41 Yes Yes
2016AC9 O C 2016-01-14.19528 1.000E-05 05:34:58.090 1.500E-01 0.500 F -0.131 0.206 +12° 26' 33.30" 1.000E-01 0.500 F 0.143 -0.167 20.3 V 0.70 -0.33 o 691 0.55 Yes Yes
2016AC9 O C 2016-01-14.19777 1.000E-05 05:34:58.590 1.500E-01 0.500 F -0.131 -0.302 +12° 26' 26.40" 1.000E-01 0.500 F 0.143 0.517 20.3 V 0.70 -0.33 o 691 1.23 Yes Yes
2016AC9 O C 2016-01-14.20025 1.000E-05 05:34:59.120 1.500E-01 0.500 F -0.131 -0.336 +12° 26' 18.40" 1.000E-01 0.500 F 0.143 0.073 20.5 V 0.70 -0.13 o 691 0.71 Yes Yes
2015YE O C H 2016-01-14.24435 1.000E-05 06:25:05.170 1.500E-01 0.500 F -0.006 0.243 +05° 50' 03.00" 1.000E-01 0.500 F 0.070 -0.047 o 691 0.66 Yes No
2015YE O C H 2016-01-14.24776 1.000E-05 06:25:05.690 1.500E-01 0.500 F -0.006 -0.097 +05° 49' 58.80" 1.000E-01 0.500 F 0.070 -0.018 o 691 0.26 Yes No
2012DU30 O C 2016-01-14.27164 1.000E-05 08:26:25.400 1.500E-01 0.500 F -0.033 0.103 -06° 50' 24.90" 1.000E-01 0.500 F 0.004 -0.438 o 691 0.90 Yes No
2016AP164 O C H 2016-01-14.27164 1.000E-05 08:25:45.640 1.500E-01 0.500 F 0.064 0.215 -07° 31' 53.30" 1.000E-01 0.500 F 0.010 -0.975 o 691 2.01 Yes No
2016AP164 O C H 2016-01-14.27575 1.000E-05 08:25:45.530 1.500E-01 0.500 F 0.064 -0.251 -07° 31' 56.70" 1.000E-01 0.500 F 0.010 -0.123 21.6 V 0.70 0.02 o 691 0.56 Yes Yes
2012DU30 O C 2016-01-14.27575 1.000E-05 08:26:25.120 1.500E-01 0.500 F -0.033 -0.529 -06° 50' 21.60" 1.000E-01 0.500 F 0.004 -0.067 o 691 1.07 Yes No
2012DU30 O C 2016-01-14.27986 1.000E-05 08:26:24.880 1.500E-01 0.500 F -0.033 -0.563 -06° 50' 18.30" 1.000E-01 0.500 F 0.004 0.303 o 691 1.28 Yes No
2016AP164 O C H 2016-01-14.27986 1.000E-05 08:25:45.490 1.500E-01 0.500 F 0.064 0.328 -07° 32' 01.40" 1.000E-01 0.500 F 0.010 -0.573 21.5 V 0.70 -0.08 o 691 1.33 Yes Yes
2016AU65 O C 2016-01-14.30401 1.000E-05 08:07:22.760 1.500E-01 0.500 F 0.011 0.437 +20° 48' 25.30" 1.000E-01 0.500 F 0.260 -0.732 19.5 V 0.70 -0.42 o 691 1.72 Yes Yes
2016AU65 O C 2016-01-14.30603 1.000E-05 08:07:21.700 1.500E-01 0.500 F 0.011 -0.343 +20° 48' 27.50" 1.000E-01 0.500 F 0.260 0.043 19.7 V 0.70 -0.22 o 691 0.70 Yes Yes
2016AU65 O C 2016-01-14.30806 1.000E-05 08:07:20.710 1.500E-01 0.500 F 0.011 -0.069 +20° 48' 28.60" 1.000E-01 0.500 F 0.260 -0.286 19.9 V 0.70 -0.02 o 691 0.59 Yes Yes
2016AG165 O C H 2016-01-14.31469 1.000E-05 09:49:16.380 1.500E-01 0.500 F 0.006 -0.052 +27° 21' 10.90" 1.000E-01 0.500 F 0.284 -0.215 20.4 V 0.70 0.30 o 691 0.45 Yes Yes
2016AG165 O C H 2016-01-14.31695 1.000E-05 09:49:15.910 1.500E-01 0.500 F 0.006 -0.048 +27° 21' 06.00" 1.000E-01 0.500 F 0.284 -0.385 20.4 V 0.70 0.30 o 691 0.78 Yes Yes
2016AH8 O C 2016-01-14.35007 1.000E-05 09:57:23.940 1.500E-01 0.500 F 0.111 -0.285 -11° 53' 57.30" 1.000E-01 0.500 F 0.101 -0.265 21.6 V 0.70 1.10 o 691 0.78 Yes Yes
2016AH8 O C 2016-01-14.35210 1.000E-05 09:57:23.840 1.500E-01 0.500 F 0.111 -0.635 -11° 53' 48.50" 1.000E-01 0.500 F 0.101 0.632 21.5 V 0.70 1.00 o 691 1.80 Yes Yes
2016AH8 O C 2016-01-14.35412 1.000E-05 09:57:23.770 1.500E-01 0.500 F 0.111 -0.549 -11° 53' 41.10" 1.000E-01 0.500 F 0.101 0.166 21.0 V 0.70 0.50 o 691 1.15 Yes Yes
1997AP10 O C 2016-01-14.43145 1.000E-05 07:35:54.830 1.500E-01 0.500 F -0.015 -0.168 +21° 41' 26.10" 1.000E-01 0.500 F 0.314 0.377 o 691 0.83 Yes No
1997AP10 O C 2016-01-14.45039 1.000E-05 07:35:52.600 1.500E-01 0.500 F -0.015 -0.152 +21° 41' 28.20" 1.000E-01 0.500 F 0.314 -0.144 o 691 0.42 Yes No
1997AP10 O C 2016-01-14.46932 1.000E-05 07:35:50.360 1.500E-01 0.500 F -0.015 -0.351 +21° 41' 30.30" 1.000E-01 0.500 F 0.314 -0.643 o 691 1.47 Yes No
2013WT67 O C 2016-01-14.50431 1.000E-05 15:33:21.130 1.500E-01 0.500 F 0.116 -0.478 +06° 54' 39.40" 1.000E-01 0.500 F 0.178 -1.422 o 691 3.01 Yes No
2013WT67 O C 2016-01-14.51613 1.000E-05 15:33:20.050 1.500E-01 0.500 F 0.116 -0.134 +06° 53' 44.10" 1.000E-01 0.500 F 0.178 -0.258 o 691 0.58 Yes No
2013WT67 O C 2016-01-14.53942 1.000E-05 15:33:17.860 1.500E-01 0.500 F 0.116 -0.039 +06° 51' 53.00" 1.000E-01 0.500 F 0.178 -0.011 o 691 0.08 Yes No
2015YU7 O C H 2016-01-15.10198 1.000E-05 03:07:10.840 1.500E-01 0.500 F -0.205 0.658 +04° 32' 40.10" 1.000E-01 0.500 F 0.257 -1.011 o 691 2.42 Yes No
2015YU7 O C H 2016-01-15.10470 1.000E-05 03:07:11.100 1.500E-01 0.500 F -0.205 -0.256 +04° 32' 41.60" 1.000E-01 0.500 F 0.257 -1.194 o 691 2.45 Yes No
2016AO66 O C 2016-01-15.11962 1.000E-05 03:31:52.160 1.500E-01 0.500 F -0.358 -0.168 +01° 42' 06.60" 1.000E-01 0.500 F 0.259 0.137 19.9 V 0.70 -0.42 o 691 0.44 Yes Yes
2016AO66 O C 2016-01-15.12211 1.000E-05 03:31:51.890 1.500E-01 0.500 F -0.358 -0.966 +01° 42' 16.60" 1.000E-01 0.500 F 0.259 -0.346 20.0 V 0.70 -0.32 o 691 2.07 Yes Yes
2016AO66 O C 2016-01-15.12460 1.000E-05 03:31:51.740 1.500E-01 0.500 F -0.358 0.035 +01° 42' 27.00" 1.000E-01 0.500 F 0.259 -0.429 20.1 V 0.70 -0.22 o 691 0.87 Yes Yes
2016AM131 O C 2016-01-15.12834 1.000E-05 05:16:14.300 1.500E-01 0.500 F -0.244 -0.096 -02° 52' 38.50" 1.000E-01 0.500 F 0.037 0.006 19.7 V 0.70 -0.02 o 691 0.19 Yes Yes
2016AM131 O C 2016-01-15.13106 1.000E-05 05:16:13.710 1.500E-01 0.500 F -0.244 -0.371 -02° 52' 40.10" 1.000E-01 0.500 F 0.037 0.682 19.6 V 0.70 -0.12 o 691 1.56 Yes Yes
2016AM131 O C 2016-01-15.13378 1.000E-05 05:16:13.150 1.500E-01 0.500 F -0.244 -0.194 -02° 52' 43.40" 1.000E-01 0.500 F 0.037 -0.343 19.8 V 0.70 0.08 o 691 0.79 Yes Yes
2016AH165 O C H 2016-01-15.13991 1.000E-05 05:33:44.850 1.500E-01 0.500 F -0.092 0.667 +24° 27' 49.90" 1.000E-01 0.500 F 0.179 -0.075 o 691 1.37 Yes No
2016AH165 O C H 2016-01-15.14239 1.000E-05 05:33:45.110 1.500E-01 0.500 F -0.092 0.390 +24° 27' 40.60" 1.000E-01 0.500 F 0.179 -0.509 20.4 V 0.70 -0.08 o 691 1.32 Yes Yes
2016AH165 O C H 2016-01-15.14488 1.000E-05 05:33:45.310 1.500E-01 0.500 F -0.092 -0.718 +24° 27' 32.90" 1.000E-01 0.500 F 0.179 0.694 21.0 V 0.70 0.52 o 691 2.05 Yes Yes
2015XA379 O C H 2016-01-15.17755 1.000E-05 06:03:55.940 1.500E-01 0.500 F 0.029 0.285 +05° 09' 46.60" 1.000E-01 0.500 F 0.122 0.175 19.9 V 0.70 -0.06 o 691 0.67 Yes Yes
2015XA379 O C H 2016-01-15.18027 1.000E-05 06:03:56.280 1.500E-01 0.500 F 0.029 -0.069 +05° 09' 45.00" 1.000E-01 0.500 F 0.122 0.118 20.0 V 0.70 0.04 o 691 0.27 Yes Yes
2015XA379 O C H 2016-01-15.18300 1.000E-05 06:03:56.620 1.500E-01 0.500 F 0.029 -0.423 +05° 09' 43.00" 1.000E-01 0.500 F 0.122 -0.329 20.1 V 0.70 0.14 o 691 1.08 Yes Yes
2012BU61 O C H 2016-01-15.18673 1.000E-05 06:23:30.620 1.500E-01 0.500 F -0.092 0.122 +27° 04' 29.40" 1.000E-01 0.500 F 0.208 -0.575 o 691 1.20 Yes No
2012BU61 O C H 2016-01-15.18945 1.000E-05 06:23:30.860 1.500E-01 0.500 F -0.092 0.526 +27° 04' 22.50" 1.000E-01 0.500 F 0.208 -0.928 o 691 2.17 Yes No
2012BU61 O C H 2016-01-15.19218 1.000E-05 06:23:31.010 1.500E-01 0.500 F -0.092 -0.276 +27° 04' 17.00" 1.000E-01 0.500 F 0.208 0.145 19.3 V 0.70 0.32 o 691 0.63 Yes Yes
2015XN O C H 2016-01-15.19550 1.000E-05 06:54:55.250 1.500E-01 0.500 F -0.049 0.342 +19° 56' 51.60" 1.000E-01 0.500 F 0.194 -0.413 o 691 1.11 Yes No
2015XN O C H 2016-01-15.19822 1.000E-05 06:54:55.750 1.500E-01 0.500 F -0.049 -0.089 +19° 56' 54.60" 1.000E-01 0.500 F 0.194 -0.697 o 691 1.47 Yes No
2015XN O C H 2016-01-15.20094 1.000E-05 06:54:56.290 1.500E-01 0.500 F -0.049 0.053 +19° 56' 59.60" 1.000E-01 0.500 F 0.194 1.025 o 691 2.15 Yes No
2016AV65 O C H 2016-01-15.21621 1.000E-05 05:39:07.820 1.500E-01 0.500 F -0.015 0.200 -12° 58' 28.30" 1.000E-01 0.500 F 0.008 -0.800 o 691 1.70 Yes No

[1-200] [201-400] [401-600] [601-800] [801-1000] [1001-1200] [1201-1400] [1401-1600] [1601-1800] [1801-2000] [2001-2200] [2201-2400] [2401-2600] [2601-2800] [2801-3000] [3001-3200] [3201-3400] [3401-3600] [3601-3800] [3801-4000] [4001-4200] [4201-4400] [4401-4600] [4601-4800] [4801-5000] [5001-5200] [5201-5400] [5401-5600] [5601-5800] [5801-6000] [6001-6200] [6201-6400] [6401-6600] [6601-6800] [6801-7000] [7001-7200] [7201-7400] [7401-7600] [7601-7800] [7801-8000] [8001-8200] [8201-8400] [8401-8600] [8601-8800] [8801-9000] [9001-9200] [9201-9400] [9401-9600] [9601-9800] [9801-10000] [10001-10200] [10201-10400] [10401-10600] [10601-10800] [10801-11000] [11001-11200] [11201-11400] [11401-11600] [11601-11800] [11801-12000] [12001-12200] [12201-12400] [12401-12600] [12601-12800] [12801-13000] [13001-13200] [13201-13400] [13401-13600] [13601-13800] [13801-14000] [14001-14200] [14201-14400] [14401-14600] [14601-14800] [14801-15000] [15001-15200] [15201-15400] [15401-15600] [15601-15800] [15801-16000] [16001-16200] [16201-16400] [16401-16600] [16601-16800] [16801-17000] [17001-17200] [17201-17400] [17401-17600] [17601-17800] [17801-18000] [18001-18200] [18201-18400] [18401-18600] [18601-18800] [18801-19000] [19001-19200] [19201-19400] [19401-19600] [19601-19800] [19801-20000] [20001-20200] [20201-20400] [20401-20600] [20601-20800] [20801-21000] [21001-21200] [21201-21400] [21401-21600] [21601-21800] [21801-22000] [22001-22200] [22201-22400] [22401-22600] [22601-22800] [22801-23000] [23001-23200] [23201-23400] [23401-23600] [23601-23800] [23801-24000] [24001-24200] [24201-24400] [24401-24600] [24601-24800] [24801-25000] [25001-25200] [25201-25400] [25401-25600] [25601-25800] [25801-26000] [26001-26200] [26201-26400] [26401-26600] [26601-26800] [26801-27000] [27001-27200] [27201-27400] [27401-27600] [27601-27800] [27801-28000] [28001-28200] [28201-28400] [28401-28600] [28601-28800] [28801-29000] [29001-29200] [29201-29400] [29401-29600] [29601-29800] [29801-30000] [30001-30200] [30201-30400] [30401-30600] [30601-30800] [30801-31000] [31001-31200] [31201-31400] [31401-31600] [31601-31800] [31801-32000] [32001-32200] [32201-32400] [32401-32600] [32601-32800] [32801-33000] [33001-33200] [33201-33400] [33401-33600] [33601-33800] [33801-34000] [34001-34200] [34201-34400] [34401-34600] [34601-34800] [34801-35000] [35001-35200] [35201-35400] [35401-35600] [35601-35800] [35801-36000] [36001-36200] [36201-36400] [36401-36600] [36601-36800] [36801-37000] [37001-37200] [37201-37400] [37401-37600] [37601-37800] [37801-38000] [38001-38200] [38201-38400] [38401-38600] [38601-38800] [38801-39000] [39001-39200] [39201-39400] [39401-39600] [39601-39800] [39801-40000] [40001-40200] [40201-40400] [40401-40600] [40601-40800] [40801-41000] [41001-41200] [41201-41400] [41401-41600] [41601-41800] [41801-42000] [42001-42200] [42201-42400] [42401-42600] [42601-42800] [42801-43000] [43001-43200] [43201-43400] [43401-43600] [43601-43800] [43801-44000] [44001-44200] [44201-44400] [44401-44600] [44601-44800] [44801-45000] [45001-45200] [45201-45400] [45401-45600] [45601-45800] [45801-46000] [46001-46200] [46201-46400] [46401-46600] [46601-46800] [46801-47000] [47001-47200] [47201-47400] [47401-47600] [47601-47800] [47801-48000] [48001-48200] [48201-48400] [48401-48600] [48601-48800] [48801-49000] [49001-49200] [49201-49400] [49401-49600] [49601-49800] [49801-50000] [50001-50200] [50201-50400] [50401-50600] [50601-50741]